• Join FlightAware (Why Join?)
  • Login
  • US Flag 
04:52PM EDT


 

Airport Tracker/Info


-or-


 

Live Flight TrackerFlight Track Log ✈ UAL1493 ✈ 04-May-2013 ✈ KEWR - KLAX

Flight Track Log - Related Links

Times and Time Zones

All times are in EDT time to prevent confusion due to time zone crossing. See the UAL1493 flight status page for this flight to view local times or setup timezone preferences in your user account.

Time Position Orientation Groundspeed Altitude Reporting Facility
EDT Latitude Longitude Course Direction KTS MPH feet Rate Location/Type
11:13AM 40.7333 -74.1500 323° Northwest 219 252 2,000  Level New York TRACON
11:14AM 40.7833 -74.2167 315° West 253 291 5,000 3,000 Climbing New York TRACON
11:15AM 40.8121 -74.7356 287° West  Level FlightAware Approximate
11:15AM 40.8000 -74.3000 285° West 258 297 8,100  Level New York TRACON
11:16AM 40.8454 -74.8798 287° West  Level FlightAware Approximate
11:16AM 40.8167 -74.4167 281° West 298 343 10,400  Level New York TRACON
11:17AM 40.8818 -75.0152 323° Northwest  Level FlightAware Approximate
11:17AM 40.8333 -74.5167 282° West 351 404 11,700  Level New York TRACON
11:18AM 40.9164 -75.1497 323° Northwest  Level FlightAware Approximate
11:18AM 40.8500 -74.6500 279° West 379 436 14,000  Level New York TRACON
11:18AM 40.8644 -74.7744 279° West 396 456 15,700 1,620 Climbing New York Center
11:19AM 40.8828 -74.9072 280° West 396 456 17,000 1,080 Climbing New York Center
11:20AM 40.9028 -75.0539 280° West 396 456 17,900 1,260 Climbing New York Center
11:21AM 40.9100 -75.1917 274° West 410 472 19,500 2,100 Climbing New York Center
11:22AM 40.8764 -75.3622 255° West 420 483 22,000 1,980 Climbing New York Center
11:23AM 40.8392 -75.5189 253° West 425 489 23,600 1,560 Climbing New York Center
11:24AM 40.7992 -75.6806 252° West 447 514 25,200 1,500 Climbing New York Center
11:25AM 40.7608 -75.8450 253° West 462 532 26,700 1,380 Climbing New York Center
11:26AM 40.7206 -76.0064 252° West 467 537 28,000 840 Climbing New York Center
11:27AM 40.6797 -76.1728 252° West 473 544 28,400 1,080 Climbing New York Center
11:28AM 40.6783 -76.3397 269° West 455 524 30,200 1,560 Climbing New York Center
11:29AM 40.7039 -76.5033 282° West 455 524 31,600 1,260 Climbing New York Center
11:30AM 40.7272 -76.6642 281° West 455 524 32,800 1,140 Climbing New York Center
11:31AM 40.7503 -76.8250 281° West 455 524 33,900 600 Climbing New York Center
11:32AM 40.7733 -76.9833 281° West 448 516 34,000  Climbing New York Center
11:35AM 40.8311 -77.3806 281° West 448 516 34,000  Level Cleveland Center
11:36AM 40.8436 -77.5281 276° West 448 516 34,000  Level Cleveland Center
11:37AM 40.8542 -77.6925 275° West 448 516 34,000  Level Cleveland Center
11:38AM 40.8642 -77.8539 275° West 448 516 34,000  Level Cleveland Center
11:39AM 40.8742 -78.0156 275° West 448 516 34,000  Level Cleveland Center
11:40AM 40.8819 -78.1772 274° West 448 516 34,000  Level Cleveland Center
11:41AM 40.8961 -78.3553 276° West 443 510 34,000  Level Cleveland Center
11:42AM 40.9033 -78.5172 273° West 443 510 34,000  Level Cleveland Center
11:43AM 40.9122 -78.6764 274° West 443 510 34,000  Level Cleveland Center
11:44AM 40.9211 -78.8353 274° West 443 510 34,000  Level Cleveland Center
11:45AM 40.9297 -79.0000 274° West 443 510 34,000  Level Cleveland Center
11:46AM 40.9381 -79.1619 274° West 443 510 34,000  Level Cleveland Center
11:47AM 40.9442 -79.3242 273° West 443 510 34,000  Level Cleveland Center
11:48AM 40.9519 -79.4833 274° West 443 510 34,000  Level Cleveland Center
11:49AM 40.9597 -79.6456 274° West 443 510 34,000  Level Cleveland Center
11:50AM 40.9672 -79.8106 273° West 443 510 34,000  Level Cleveland Center
11:51AM 40.9744 -79.9725 273° West 443 510 34,100 360 Climbing Cleveland Center
11:52AM 40.9794 -80.1403 272° West 443 510 34,800 720 Climbing Cleveland Center
11:53AM 40.9861 -80.3025 273° West 448 516 35,600 600 Climbing Cleveland Center
11:54AM 40.9947 -80.4703 274° West 448 516 36,000 180 Climbing Cleveland Center
11:55AM 40.9989 -80.6381 272° West 454 522 36,000  Level Cleveland Center
11:56AM 41.0072 -80.8033 274° West 459 528 36,000  Level Cleveland Center
11:57AM 41.0108 -80.9683 272° West 459 528 36,000  Level Cleveland Center
11:58AM 41.0144 -81.1333 272° West 454 522 36,000  Level Cleveland Center
11:59AM 41.0175 -81.3042 271° West 460 529 36,000  Level Cleveland Center
12:00PM 41.0225 -81.4692 272° West 459 528 36,000  Level Cleveland Center
12:01PM 41.0275 -81.6344 272° West 459 528 36,000  Level Cleveland Center
12:02PM 41.0319 -81.8053 272° West 459 528 36,000  Level Cleveland Center
12:03PM 41.0367 -81.9567 272° West 459 528 36,000  Level Cleveland Center
12:04PM 41.0406 -82.1275 272° West 459 528 36,000  Level Cleveland Center
12:05PM 41.0444 -82.2956 272° West 459 528 36,000  Level Cleveland Center
12:06PM 41.0461 -82.4636 271° West 459 528 36,000  Level Cleveland Center
12:07PM 41.0511 -82.6481 272° West 459 528 36,000  Level Cleveland Center
12:08PM 41.0542 -82.8217 271° West 459 528 36,000  Level Cleveland Center
12:09PM 41.0550 -82.9869 270° West 453 521 36,000  Level Cleveland Center
12:10PM 41.0575 -83.1578 271° West 462 532 36,000  Level Cleveland Center
12:11PM 41.0639 -83.3233 273° West 462 532 36,000  Level Cleveland Center
12:12PM 41.0658 -83.4997 271° West 468 539 36,000  Level Cleveland Center
12:13PM 41.0683 -83.6514 271° West 468 539 36,000  Level Cleveland Center
12:14PM 41.0694 -83.8278 271° West 468 539 36,000  Level Cleveland Center
12:15PM 41.0689 -83.9986 270° West 468 539 36,000  Level Cleveland Center
12:16PM 41.0697 -84.1722 270° West 468 539 36,000  Level Cleveland Center
12:17PM 41.0703 -84.3683 270° West 472 543 36,000  Level Chicago Center
12:18PM 41.0708 -84.5408 270° West 469 540 36,000  Level Chicago Center
12:19PM 41.0711 -84.7492 270° West 470 541 36,000  Level Chicago Center
12:20PM 41.0708 -84.9225 270° West 470 541 36,000  Level Chicago Center
12:21PM 41.0703 -85.0992 270° West 475 547 36,000  Level Chicago Center
12:22PM 41.0694 -85.2747 270° West 475 547 36,000  Level Chicago Center
12:23PM 41.0681 -85.4525 269° West 478 550 36,000  Level Chicago Center
12:24PM 41.0667 -85.6308 269° West 480 552 36,000  Level Chicago Center
12:25PM 41.0653 -85.8061 269° West 477 549 36,000  Level Chicago Center
12:26PM 41.0631 -85.9833 269° West 479 551 36,000  Level Chicago Center
12:27PM 41.0611 -86.1606 269° West 480 552 36,000  Level Chicago Center
12:28PM 41.0581 -86.3731 269° West 479 551 36,000  Level Chicago Center
12:29PM 41.0544 -86.5483 268° West 477 549 36,000  Level Chicago Center
12:30PM 41.0544 -86.7231 270° West 474 545 36,000  Level Chicago Center
12:31PM 41.0511 -86.8886 269° West 476 548 36,000  Level Chicago Center
12:33PM 41.0486 -87.0617 269° West 473 544 36,000  Level Chicago Center
12:34PM 41.0433 -87.2725 268° West 477 549 36,000  Level Chicago Center
12:35PM 41.0394 -87.4481 268° West 475 547 36,000  Level Chicago Center
12:36PM 41.0347 -87.6258 268° West 482 555 36,000  Level Chicago Center
12:37PM 41.0303 -87.8025 268° West 480 552 36,000  Level Chicago Center
12:38PM 41.0256 -87.9819 268° West 483 556 36,000  Level Chicago Center
12:39PM 41.0203 -88.1603 268° West 483 556 36,000  Level Chicago Center
12:40PM 41.0150 -88.3381 268° West 481 554 36,000  Level Chicago Center
12:41PM 41.0100 -88.5150 268° West 480 552 36,000  Level Chicago Center
12:42PM 41.0022 -88.7247 267° West 477 549 36,000  Level Chicago Center
12:43PM 40.9978 -88.8861 268° West 483 556 36,000  Level Chicago Center
12:44PM 40.9911 -89.0614 267° West 481 554 36,000  Level Chicago Center
12:45PM 40.9842 -89.2392 267° West 487 560 36,000  Level Chicago Center
12:46PM 40.9772 -89.4136 267° West 481 554 36,000  Level Chicago Center
12:47PM 40.9600 -89.6028 263° West 481 554 36,000  Level Chicago Center
12:48PM 40.9419 -89.7781 262° West 484 557 36,000  Level Chicago Center
12:49PM 40.9206 -89.9861 262° West 480 552 36,000  Level Chicago Center
12:50PM 40.9025 -90.1628 262° West 482 555 36,000  Level Chicago Center
12:51PM 40.8867 -90.3161 262° West 484 557 36,000  Level Chicago Center
12:52PM 40.8642 -90.5283 262° West 487 560 36,000  Level Chicago Center
12:53PM 40.8428 -90.7086 261° West 497 572 36,000  Level Chicago Center
12:54PM 40.8231 -90.8850 262° West 492 566 36,000  Level Chicago Center
12:55PM 40.8028 -91.0622 261° West 489 563 36,000  Level Chicago Center
12:56PM 40.7825 -91.2392 261° West 489 563 36,000  Level Chicago Center
12:57PM 40.7633 -91.4106 262° West 485 558 36,000  Level Chicago Center
12:58PM 40.7389 -91.6189 261° West 484 557 36,000  Level Chicago Center
12:59PM 40.7183 -91.7897 261° West 479 551 36,000  Level Chicago Center
01:00PM 40.6978 -91.9597 261° West 475 547 36,000  Level Chicago Center
01:01PM 40.6772 -92.1278 261° West 473 544 36,000  Level Chicago Center
01:02PM 40.6567 -92.2942 261° West 468 539 36,000  Level Chicago Center
01:03PM 40.6317 -92.4942 261° West 469 540 36,000  Level Chicago Center
01:04PM 40.6236 -92.5597 261° West 468 539 36,000  Level Kansas City Center
01:05PM 40.5986 -92.7542 260° West 461 531 36,000  Level Kansas City Center
01:06PM 40.5767 -92.9178 260° West 454 522 36,000  Level Kansas City Center
01:07PM 40.5567 -93.0744 261° West 452 520 36,000  Level Kansas City Center
01:08PM 40.5356 -93.2356 260° West 453 521 36,000  Level Kansas City Center
01:09PM 40.5125 -93.3989 260° West 457 526 36,000  Level Kansas City Center
01:10PM 40.4928 -93.5286 259° West 458 527 36,000  Level Minneapolis Center
01:11PM 40.4711 -93.6908 260° West 457 526 36,000  Level Minneapolis Center
01:12PM 40.4439 -93.8875 260° West 458 527 36,000  Level Minneapolis Center
01:13PM 40.4214 -94.0500 260° West 459 528 36,000  Level Minneapolis Center
01:14PM 40.3975 -94.2133 259° West 459 528 36,000  Level Minneapolis Center
01:15PM 40.3747 -94.3767 260° West 459 528 36,000  Level Minneapolis Center
01:16PM 40.3506 -94.5389 259° West 458 527 36,000  Level Minneapolis Center
01:17PM 40.3256 -94.7178 260° West 459 528 36,000  Level Minneapolis Center
01:18PM 40.3022 -94.8814 259° West 456 525 36,000  Level Minneapolis Center
01:19PM 40.2764 -95.0456 258° West 459 528 36,000  Level Minneapolis Center
01:20PM 40.2542 -95.2069 260° West 453 521 36,000  Level Minneapolis Center
01:21PM 40.2289 -95.3706 259° West 455 524 36,000  Level Minneapolis Center
01:22PM 40.1994 -95.5639 259° West 451 519 36,000  Level Minneapolis Center
01:23PM 40.1750 -95.7242 259° West 450 518 36,000  Level Minneapolis Center
01:24PM 40.1500 -95.8847 259° West 449 517 36,000  Level Minneapolis Center
01:25PM 40.1253 -96.0422 258° West 445 512 36,000  Level Minneapolis Center
01:26PM 40.1053 -96.1675 258° West 442 509 36,000  Level Minneapolis Center
01:27PM 40.0742 -96.3558 258° West 442 509 36,000  Level Minneapolis Center
01:28PM 40.0492 -96.5117 258° West 440 506 36,000  Level Minneapolis Center
01:29PM 40.0233 -96.6678 258° West 440 506 36,000  Level Minneapolis Center
01:30PM 39.9978 -96.8239 258° West 440 506 36,000  Level Minneapolis Center
01:31PM 39.9717 -96.9808 258° West 441 507 36,000  Level Minneapolis Center
01:32PM 39.9403 -97.1689 258° West 441 507 36,000  Level Minneapolis Center
01:33PM 39.9122 -97.3264 257° West 442 509 36,000  Level Minneapolis Center
01:34PM 39.8856 -97.4847 258° West 445 512 36,000  Level Minneapolis Center
01:35PM 39.8589 -97.6422 258° West 445 512 36,000  Level Minneapolis Center
01:36PM 39.8317 -97.7978 257° West 443 510 36,000  Level Minneapolis Center
01:38PM 39.8036 -97.9533 257° West 441 507 36,000  Level Minneapolis Center
01:39PM 39.7769 -98.1094 258° West 441 507 36,000  Level Minneapolis Center
01:40PM 39.7483 -98.2642 257° West 440 506 36,000  Level Minneapolis Center
01:41PM 39.7211 -98.4175 257° West 437 503 36,000  Level Minneapolis Center
01:42PM 39.6922 -98.5700 256° West 434 499 36,000  Level Minneapolis Center
01:43PM 39.6639 -98.7244 257° West 437 503 36,000  Level Minneapolis Center
01:44PM 39.6303 -98.9125 257° West 443 510 36,000  Level Minneapolis Center
01:45PM 39.6003 -99.0681 256° West 443 510 36,000  Level Minneapolis Center
01:46PM 39.5719 -99.2244 257° West 444 511 36,000  Level Minneapolis Center
01:47PM 39.5419 -99.3800 256° West 445 512 36,000  Level Minneapolis Center
01:48PM 39.5133 -99.5347 257° West 441 507 36,000  Level Minneapolis Center
01:49PM 39.4839 -99.6867 256° West 437 503 36,000  Level Minneapolis Center
01:50PM 39.4550 -99.8394 256° West 437 503 36,000  Level Minneapolis Center
01:51PM 39.4247 -99.9903 255° West 436 502 36,000  Level Minneapolis Center
01:51PM 39.4119 -100.0517 255° West 430 495 36,000  Level Denver Center
01:52PM 39.3842 -100.1911 256° West 421 484 36,000  Level Denver Center
01:53PM 39.3458 -100.3800 255° West 425 489 36,000  Level Denver Center
01:54PM 39.3178 -100.5242 256° West 429 494 36,000  Level Denver Center
01:55PM 39.2833 -100.6919 255° West 432 497 36,000  Level Denver Center
01:56PM 39.2536 -100.8344 255° West 430 495 36,000  Level Denver Center
01:57PM 39.2250 -100.9778 256° West 431 496 36,000  Level Denver Center
01:59PM 39.1906 -101.1439 255° West 430 495 36,000  Level Denver Center
02:00PM 39.1606 -101.2869 255° West 430 495 36,000  Level Denver Center
02:01PM 39.1256 -101.4544 255° West 434 499 36,000  Level Denver Center
02:02PM 39.0953 -101.5972 255° West 432 497 36,000  Level Denver Center
02:03PM 39.0636 -101.7439 255° West 433 498 36,000  Level Denver Center
02:04PM 39.0289 -101.9064 255° West 424 488 36,000  Level Denver Center
02:05PM 38.9992 -102.0472 255° West 426 490 36,000  Level Denver Center
02:06PM 38.9636 -102.2089 254° West 424 488 36,000  Level Denver Center
02:07PM 38.9331 -102.3472 254° West 422 486 36,000 240 Level Denver Center
02:08PM 38.8975 -102.5086 254° West 421 484 36,500 600 Climbing Denver Center
02:09PM 38.8672 -102.6472 254° West 423 487 37,300 720 Climbing Denver Center
02:10PM 38.8319 -102.8061 254° West 419 482 38,000 300 Climbing Denver Center
02:11PM 38.7992 -102.9489 254° West 414 476 38,000  Level Denver Center
02:12PM 38.7669 -103.0917 254° West 414 476 38,000  Level Denver Center
02:13PM 38.7342 -103.2336 254° West 412 474 38,000  Level Denver Center
02:14PM 38.7028 -103.3722 254° West 404 465 38,000  Level Denver Center
02:15PM 38.6703 -103.5122 253° West 398 458 38,000  Level Denver Center
02:16PM 38.6403 -103.6406 253° West 395 455 38,000  Level Denver Center
02:17PM 38.6061 -103.7894 254° West 392 451 38,000  Level Denver Center
02:18PM 38.5767 -103.9164 254° West 390 449 38,000  Level Denver Center
02:19PM 38.5408 -104.0642 253° West 390 449 38,000  Level Denver Center
02:20PM 38.5125 -104.1828 253° West 390 449 38,000  Level Denver Center
02:21PM 38.4817 -104.3144 253° West 386 444 38,000  Level Denver Center
02:22PM 38.4444 -104.4681 253° West 383 441 38,000  Level Denver Center
02:23PM 38.4122 -104.6017 253° West 389 448 38,000  Level Denver Center
02:24PM 38.3811 -104.7328 253° West 384 442 38,000  Level Denver Center
02:25PM 38.3481 -104.8661 252° West 388 447 38,000  Level Denver Center
02:26PM 38.3142 -105.0044 253° West 392 451 38,000  Level Denver Center
02:27PM 38.2839 -105.1286 253° West 389 448 38,000  Level Denver Center
02:28PM 38.2478 -105.2744 253° West 387 445 38,000  Level Denver Center
02:29PM 38.2158 -105.3983 252° West 384 442 38,000  Level Denver Center
02:30PM 38.1856 -105.5203 253° West 381 438 38,000  Level Denver Center
02:31PM 38.1494 -105.6636 252° West 380 437 38,000  Level Denver Center
02:32PM 38.1186 -105.7861 252° West 380 437 38,000  Level Denver Center
02:33PM 38.0825 -105.9275 252° West 378 435 38,000  Level Denver Center
02:34PM 38.0508 -106.0500 252° West 380 437 38,000  Level Denver Center
02:36PM 38.0194 -106.1711 252° West 379 436 38,000  Level Denver Center
02:37PM 37.9833 -106.3125 252° West 376 433 38,000  Level Denver Center
02:38PM 37.9531 -106.4314 252° West 372 428 38,000  Level Denver Center
02:39PM 37.9117 -106.5742 250° West 379 436 38,000  Level Denver Center
02:40PM 37.8758 -106.6933 249° West 378 435 38,000  Level Denver Center
02:41PM 37.8417 -106.8139 250° West 382 440 38,000  Level Denver Center
02:42PM 37.8006 -106.9522 249° West 380 437 38,000  Level Denver Center
02:43PM 37.7656 -107.0719 250° West 378 435 38,000  Level Denver Center
02:44PM 37.7239 -107.2117 249° West 382 440 38,000  Level Denver Center
02:45PM 37.6881 -107.3314 249° West 381 438 38,000  Level Denver Center
02:46PM 37.6467 -107.4725 250° West 383 441 38,000  Level Denver Center
02:47PM 37.6097 -107.5931 249° West 384 442 38,000  Level Denver Center
02:48PM 37.5731 -107.7139 249° West 385 443 38,000  Level Denver Center
02:49PM 37.5308 -107.8567 250° West 386 444 38,000  Level Denver Center
02:50PM 37.4886 -107.9978 249° West 387 445 38,000  Level Denver Center
02:51PM 37.4453 -108.1364 249° West 385 443 38,000  Level Denver Center
02:52PM 37.4092 -108.2558 249° West 381 438 38,000  Level Denver Center
02:53PM 37.3653 -108.3975 249° West 387 445 38,000  Level Denver Center
02:54PM 37.3278 -108.5164 248° West 385 443 38,000  Level Denver Center
02:55PM 37.2842 -108.6550 248° West 382 440 38,000  Level Denver Center
02:56PM 37.2469 -108.7775 249° West 389 448 38,000  Level Denver Center
02:57PM 37.2089 -108.8967 248° West 386 444 38,000  Level Denver Center
02:58PM 37.1647 -109.0378 249° West 389 448 38,000  Level Denver Center
02:59PM 37.1264 -109.1589 248° West 391 450 38,000  Level Denver Center
03:00PM 37.0814 -109.3006 248° West 391 450 38,000  Level Denver Center
03:01PM 37.0428 -109.4225 248° West 393 452 38,000  Level Denver Center
03:03PM 36.9964 -109.5644 248° West 395 455 38,000  Level Denver Center
03:04PM 36.9517 -109.7053 248° West 392 451 38,000  Level Denver Center
03:05PM 36.9058 -109.8461 248° West 392 451 38,000  Level Denver Center
03:06PM 36.8658 -109.9681 248° West 394 453 38,000  Level Denver Center
03:07PM 36.8192 -110.1094 248° West 397 457 38,000  Level Denver Center
03:08PM 36.7797 -110.2300 248° West 397 457 38,000  Level Denver Center
03:09PM 36.7375 -110.3569 247° West 396 456 38,000  Level Denver Center
03:10PM 36.6961 -110.4833 248° West 394 453 38,000  Level Denver Center
03:11PM 36.6528 -110.6114 247° West 399 459 38,000  Level Denver Center
03:12PM 36.6131 -110.7375 249° West 394 453 38,000  Level Denver Center
03:13PM 36.5708 -110.8639 247° West 394 453 38,000  Level Denver Center
03:14PM 36.5172 -111.0142 246° West 396 456 38,000  Level Denver Center
03:15PM 36.4772 -111.1372 248° West 388 447 38,000  Level Denver Center
03:16PM 36.4336 -111.2603 246° West 387 445 38,000  Level Denver Center
03:17PM 36.3919 -111.3853 248° West 390 449 38,000  Level Denver Center
03:18PM 36.3489 -111.5075 246° West 388 447 38,000  Level Denver Center
03:19PM 36.3064 -111.6317 247° West 389 448 38,000  Level Denver Center
03:20PM 36.2603 -111.7544 245° Southwest 391 450 38,000  Level Denver Center
03:21PM 36.2139 -111.8781 245° Southwest 394 453 38,000  Level Denver Center
03:22PM 36.1686 -112.0022 246° West 395 455 38,000  Level Denver Center
03:23PM 36.1128 -112.1497 245° Southwest 395 455 38,000  Level Denver Center
03:23PM 36.1089 -112.1606 246° West 397 457 38,000  Level Los Angeles Center
03:24PM 36.0572 -112.2972 245° Southwest 390 449 38,000  Level Los Angeles Center
03:25PM 36.0103 -112.4200 245° Southwest 393 452 38,000  Level Los Angeles Center
03:26PM 35.9644 -112.5422 245° Southwest 393 452 38,000  Level Los Angeles Center
03:27PM 35.9172 -112.6689 245° Southwest 392 451 38,000  Level Los Angeles Center
03:28PM 35.8711 -112.7894 245° Southwest 392 451 38,000  Level Los Angeles Center
03:29PM 35.8250 -112.9106 245° Southwest 394 453 38,000  Level Los Angeles Center
03:31PM 35.7686 -113.0556 244° Southwest 395 455 38,000  Level Los Angeles Center
03:32PM 35.7231 -113.1758 245° Southwest 394 453 38,000  Level Los Angeles Center
03:33PM 35.6772 -113.2947 245° Southwest 391 450 38,000  Level Los Angeles Center
03:34PM 35.6308 -113.4139 244° Southwest 391 450 38,000  Level Los Angeles Center
03:35PM 35.5747 -113.5575 244° Southwest 393 452 38,000  Level Los Angeles Center
03:36PM 35.5283 -113.6767 244° Southwest 392 451 38,000  Level Los Angeles Center
03:37PM 35.4800 -113.7975 244° Southwest 397 457 38,000  Level Los Angeles Center
03:38PM 35.4325 -113.9181 244° Southwest 395 455 38,000  Level Los Angeles Center
03:39PM 35.3858 -114.0378 244° Southwest 395 455 38,000  Level Los Angeles Center
03:40PM 35.3258 -114.1833 243° Southwest 397 457 38,000  Level Los Angeles Center
03:41PM 35.2783 -114.3058 245° Southwest 398 458 38,000  Level Los Angeles Center
03:42PM 35.2286 -114.4275 243° Southwest 399 459 38,000  Level Los Angeles Center
03:43PM 35.1797 -114.5511 244° Southwest 402 463 38,000  Level Los Angeles Center
03:44PM 35.1292 -114.6744 243° Southwest 405 466 38,000  Level Los Angeles Center
03:45PM 35.0806 -114.7956 244° Southwest 399 459 38,000  Level Los Angeles Center
03:46PM 35.0317 -114.9169 244° Southwest 397 457 38,000  Level Los Angeles Center
03:47PM 34.9717 -115.0622 243° Southwest 399 459 38,000  Level Los Angeles Center
03:48PM 34.9225 -115.1831 244° Southwest 398 458 38,000  Level Los Angeles Center
03:49PM 34.8744 -115.3000 243° Southwest 388 447 38,000  Level Los Angeles Center
03:50PM 34.8253 -115.4194 243° Southwest 392 451 38,000  Level Los Angeles Center
03:51PM 34.7756 -115.5392 243° Southwest 394 453 38,000 -420 Level Los Angeles Center
03:52PM 34.7231 -115.6628 243° Southwest 389 448 37,200 -900 Descending Los Angeles Center
03:53PM 34.6753 -115.7794 244° Southwest 386 444 36,200 -1,020 Descending Los Angeles Center
03:54PM 34.6289 -115.8922 243° Southwest 377 434 35,200 -1,020 Descending Los Angeles Center
03:55PM 34.5817 -116.0017 242° Southwest 369 425 34,100 -1,020 Descending Los Angeles Center
03:56PM 34.5256 -116.1350 243° Southwest 370 426 33,100 -840 Descending Los Angeles Center
03:57PM 34.4850 -116.2314 243° Southwest 386 444 32,400 -960 Descending Los Angeles Center
03:58PM 34.4228 -116.3764 243° Southwest 402 463 31,200 -1,080 Descending Los Angeles Center
03:59PM 34.3731 -116.4942 243° Southwest 397 457 30,200 -1,260 Descending Los Angeles Center
04:00PM 34.3244 -116.6086 243° Southwest 386 444 28,700 -1,800 Descending Los Angeles Center
04:02PM 34.2767 -116.7181 242° Southwest 370 426 26,500 -2,040 Descending Los Angeles Center
04:03PM 34.2311 -116.8242 243° Southwest 359 413 24,500 -2,160 Descending Los Angeles Center
04:04PM 34.1786 -116.9456 242° Southwest 341 392 22,100 -2,160 Descending Los Angeles Center
04:05PM 34.1350 -117.0467 242° Southwest 340 391 20,100 -1,920 Descending Los Angeles Center
04:06PM 34.0833 -117.1500 239° Southwest 334 384 18,200 -1,980 Descending Southern California TRACON
04:07PM 34.0500 -117.2500 248° West 325 374 16,100 -1,980 Descending Southern California TRACON
04:08PM 34.0333 -117.3667 260° West 320 368 14,300 -1,860 Descending Southern California TRACON
04:09PM 34.0333 -117.4667 270° West 316 364 12,400 -1,860 Descending Southern California TRACON
04:10PM 34.0167 -117.5667 259° West 344 396 10,600 -1,200 Descending Southern California TRACON
04:11PM 34.0167 -117.6667 270° West 272 313 10,100 -780 Descending Southern California TRACON
04:12PM 34.0000 -117.7500 256° West 241 277 9,200 -1,140 Descending Southern California TRACON
04:13PM 34.0000 -117.8333 270° West 243 280 7,900 -1,020 Descending Southern California TRACON
04:14PM 33.9833 -117.9167 256° West 230 265 7,100 -960 Descending Southern California TRACON
04:15PM 33.9833 -117.9833 270° West 208 239 6,000 -1,080 Descending Southern California TRACON
04:16PM 33.9667 -118.0500 253° West 207 238 5,000 -780 Descending Southern California TRACON
04:17PM 33.9667 -118.1167 270° West 199 229 4,500 -600 Descending Southern California TRACON
04:17PM 33.9636 -118.1311 256° West 204 235 4,200 -900 Descending Los Angeles Center
04:18PM 33.9572 -118.1958 263° West 198 228 3,300 -1,020 Descending Los Angeles Center
04:19PM 33.9492 -118.2703 263° West 193 222 2,100 -1,020 Descending Los Angeles Center
04:21PM 33.9333 -118.3500 257° West 165 190 700 -900 Descending Southern California TRACON
04:21PM 33.9389 -118.3783 283° West 170 196 300 -840 Descending Los Angeles Center
04:23PM 33.9333 -118.4000 259° West  Level FlightAware Approximate
04:30PM 33.9425 -118.4081 259° West  Level Estimated